createdAt,value
2024-02-17T00:02:16.948Z,0.83
2024-02-17T00:07:20.658Z,0.77
2024-02-17T00:12:24.606Z,0.73
2024-02-17T00:17:28.087Z,0.70
2024-02-17T00:22:31.618Z,0.64
2024-02-17T00:27:35.107Z,0.61
2024-02-17T00:32:38.574Z,0.60
2024-02-17T00:37:43.491Z,0.53
2024-02-17T00:42:47.188Z,0.53
2024-02-17T00:47:51.845Z,0.51
2024-02-17T00:52:57.573Z,0.45
2024-02-17T00:58:02.453Z,0.46
2024-02-17T01:03:06.225Z,0.42
2024-02-17T01:08:11.445Z,0.44
2024-02-17T01:13:14.925Z,0.47
2024-02-17T01:18:18.703Z,0.40
2024-02-17T01:23:22.370Z,0.37
2024-02-17T01:28:25.669Z,0.32
2024-02-17T01:33:29.153Z,0.28
2024-02-17T01:38:32.718Z,0.19
2024-02-17T01:43:36.285Z,0.18
2024-02-17T01:48:40.297Z,0.14
2024-02-17T01:53:44.209Z,0.12
2024-02-17T01:58:49.075Z,0.05
2024-02-17T02:03:52.716Z,-0.04
2024-02-17T02:08:56.627Z,-0.05
2024-02-17T02:14:17.377Z,-0.10
2024-02-17T02:19:21.011Z,-0.13
2024-02-17T02:24:25.784Z,-0.23
2024-02-17T02:29:29.281Z,-0.19
2024-02-17T02:34:32.798Z,-0.25
2024-02-17T02:39:37.087Z,-0.28
2024-02-17T02:44:40.728Z,-0.30
2024-02-17T02:49:44.341Z,-0.32
2024-02-17T02:54:48.764Z,-0.29
2024-02-17T02:59:52.394Z,-0.33
2024-02-17T03:04:57.157Z,-0.39
2024-02-17T03:10:00.680Z,-0.44
2024-02-17T03:15:04.905Z,-0.53
2024-02-17T03:20:08.876Z,-0.55
2024-02-17T03:25:13.399Z,-0.59
2024-02-17T03:30:17.085Z,-0.65
2024-02-17T03:35:20.416Z,-0.71
2024-02-17T03:40:23.985Z,-0.75
2024-02-17T03:45:27.478Z,-0.70
2024-02-17T03:50:31.098Z,-0.76
2024-02-17T03:55:34.559Z,-0.77
2024-02-17T04:00:38.059Z,-0.91
2024-02-17T04:05:41.713Z,-0.80
2024-02-17T04:10:45.311Z,-0.81
2024-02-17T04:15:48.944Z,-0.82
2024-02-17T04:20:52.829Z,-0.85
2024-02-17T04:25:57.728Z,-0.84
2024-02-17T04:31:01.376Z,-0.82
2024-02-17T04:36:09.223Z,-0.81
2024-02-17T04:41:12.692Z,-0.76
2024-02-17T04:46:16.402Z,-0.76
2024-02-17T04:51:19.930Z,-0.70
2024-02-17T04:56:23.324Z,-0.62
2024-02-17T05:01:26.953Z,-0.61
2024-02-17T05:06:30.503Z,-0.64
2024-02-17T05:11:33.992Z,-0.73
2024-02-17T05:16:37.501Z,-0.81
2024-02-17T05:21:44.904Z,-0.82
2024-02-17T05:26:48.590Z,-0.92
2024-02-17T05:31:52.202Z,-0.96
2024-02-17T05:36:57.931Z,-0.95
2024-02-17T05:42:02.480Z,-1.06
2024-02-17T05:47:06.150Z,-1.12
2024-02-17T05:52:09.553Z,-1.10
2024-02-17T05:57:13.330Z,-1.13
2024-02-17T06:02:18.017Z,-1.17
2024-02-17T06:07:22.459Z,-1.18
2024-02-17T06:12:25.985Z,-1.24
2024-02-17T06:17:29.714Z,-1.06
2024-02-17T06:22:33.334Z,-0.98
2024-02-17T06:27:36.742Z,-0.99
2024-02-17T06:32:40.299Z,-0.71
2024-02-17T06:37:43.634Z,-0.53
2024-02-17T06:42:47.176Z,-0.35
2024-02-17T06:47:51.689Z,-0.12
2024-02-17T06:52:54.901Z,0.12
2024-02-17T06:57:58.398Z,0.37
2024-02-17T07:03:05.083Z,0.64
2024-02-17T07:08:17.977Z,0.91
2024-02-17T07:13:21.376Z,1.11
2024-02-17T07:18:24.882Z,1.35
2024-02-17T07:23:31.781Z,1.57
2024-02-17T07:28:38.254Z,1.80
2024-02-17T07:33:41.957Z,2.05
2024-02-17T07:38:45.493Z,2.84
2024-02-17T07:43:49.956Z,4.53
2024-02-17T07:48:53.997Z,6.07
2024-02-17T07:53:58.537Z,7.32
2024-02-17T07:59:03.131Z,8.24
2024-02-17T08:04:06.714Z,8.89
2024-02-17T08:09:10.277Z,9.21
2024-02-17T08:14:17.014Z,9.69
2024-02-17T08:19:20.877Z,9.91
2024-02-17T08:24:24.522Z,10.34
2024-02-17T08:29:27.999Z,10.99
2024-02-17T08:34:31.606Z,11.25
2024-02-17T08:39:35.218Z,11.53
2024-02-17T08:44:39.230Z,11.71
2024-02-17T08:49:42.817Z,11.51
2024-02-17T08:54:47.433Z,11.28
2024-02-17T08:59:51.222Z,11.52
2024-02-17T09:04:54.748Z,11.91
2024-02-17T09:09:58.204Z,12.31
2024-02-17T09:15:01.462Z,12.56
2024-02-17T09:20:05.975Z,12.58
2024-02-17T09:25:09.884Z,12.91
2024-02-17T09:30:14.309Z,12.98
2024-02-17T09:35:19.300Z,13.13
2024-02-17T09:40:23.033Z,13.54
2024-02-17T09:45:28.233Z,13.98
2024-02-17T09:50:32.814Z,14.06
2024-02-17T09:55:37.309Z,14.07
2024-02-17T10:00:40.757Z,13.76
2024-02-17T10:05:44.911Z,13.63
2024-02-17T10:10:48.799Z,13.74
2024-02-17T10:15:52.588Z,13.86
2024-02-17T10:20:57.868Z,14.13
2024-02-17T10:26:02.111Z,14.46
2024-02-17T10:31:05.753Z,14.79
2024-02-17T10:36:09.812Z,14.70
2024-02-17T10:41:13.975Z,14.58
2024-02-17T10:46:27.685Z,15.08
2024-02-17T10:51:32.520Z,15.05
2024-02-17T10:56:36.279Z,15.02
2024-02-17T11:01:39.841Z,15.08
2024-02-17T11:06:44.207Z,15.15
2024-02-17T11:11:47.770Z,15.22
2024-02-17T11:16:52.756Z,14.97
2024-02-17T11:21:56.904Z,14.82
2024-02-17T11:27:00.492Z,14.70
2024-02-17T11:32:04.693Z,14.91
2024-02-17T11:37:09.622Z,15.14
2024-02-17T11:42:14.425Z,15.49
2024-02-17T11:47:18.052Z,15.35
2024-02-17T11:52:21.904Z,15.31
2024-02-17T11:57:27.284Z,15.49
2024-02-17T12:02:30.836Z,15.60
2024-02-17T12:07:34.399Z,15.66
2024-02-17T12:12:40.475Z,15.58
2024-02-17T12:17:45.297Z,15.48
2024-02-17T12:22:52.554Z,15.42
2024-02-17T12:27:56.328Z,15.38
2024-02-17T12:33:08.216Z,15.14
2024-02-17T12:38:11.797Z,14.90
2024-02-17T12:43:23.355Z,14.54
2024-02-17T12:48:27.481Z,14.09
2024-02-17T12:53:34.415Z,13.86
2024-02-17T12:58:37.829Z,13.71
2024-02-17T13:03:42.035Z,13.76
2024-02-17T13:08:46.331Z,13.57
2024-02-17T13:13:51.130Z,13.46
2024-02-17T13:18:58.289Z,13.37
2024-02-17T13:24:03.559Z,13.06
2024-02-17T13:29:07.160Z,12.70
2024-02-17T13:34:11.214Z,12.29
2024-02-17T13:39:14.671Z,11.98
2024-02-17T13:44:18.631Z,11.53
2024-02-17T13:49:22.416Z,11.28
2024-02-17T13:54:27.470Z,10.94
2024-02-17T13:59:35.933Z,10.49
2024-02-17T14:04:39.948Z,10.14
2024-02-17T14:09:43.407Z,9.92
2024-02-17T14:14:47.869Z,9.75
2024-02-17T14:19:51.215Z,9.60
2024-02-17T14:24:54.660Z,9.51
2024-02-17T14:29:58.225Z,9.41
2024-02-17T14:35:01.782Z,9.30
2024-02-17T14:40:05.897Z,9.24
2024-02-17T14:45:10.741Z,9.23
2024-02-17T14:50:14.517Z,9.17
2024-02-17T14:55:18.145Z,9.15
2024-02-17T15:00:21.736Z,9.06
2024-02-17T15:05:25.598Z,9.07
2024-02-17T15:10:29.135Z,9.03
2024-02-17T15:15:32.870Z,8.92
2024-02-17T15:20:36.999Z,8.81
2024-02-17T15:25:41.683Z,8.73
2024-02-17T15:30:47.037Z,8.61
2024-02-17T15:35:51.473Z,8.59
2024-02-17T15:40:55.967Z,8.47
2024-02-17T15:46:01.229Z,8.38
2024-02-17T15:51:06.621Z,8.22
2024-02-17T15:56:17.536Z,8.15
2024-02-17T16:01:21.560Z,8.02
2024-02-17T16:06:25.281Z,7.96
2024-02-17T16:11:28.761Z,7.94
2024-02-17T16:16:32.172Z,7.84
2024-02-17T16:21:36.560Z,7.77
2024-02-17T16:26:40.728Z,7.70
2024-02-17T16:31:44.454Z,7.57
2024-02-17T16:36:47.846Z,7.45
2024-02-17T16:41:52.260Z,7.35
2024-02-17T16:46:55.708Z,7.17
2024-02-17T16:51:59.432Z,7.10
2024-02-17T16:57:08.300Z,7.01
2024-02-17T17:02:13.004Z,6.97
2024-02-17T17:07:18.458Z,6.91
2024-02-17T17:12:22.761Z,6.79
2024-02-17T17:17:26.447Z,6.68
2024-02-17T17:22:39.796Z,6.71
2024-02-17T17:27:50.447Z,6.65
2024-02-17T17:32:53.887Z,6.67
2024-02-17T17:37:57.389Z,6.63
2024-02-17T17:43:06.639Z,6.78
2024-02-17T17:48:12.271Z,6.81
2024-02-17T17:53:16.611Z,6.80
2024-02-17T17:58:20.649Z,6.79
2024-02-17T18:03:24.399Z,6.78
2024-02-17T18:08:29.866Z,6.76
2024-02-17T18:13:35.135Z,6.69
2024-02-17T18:18:39.949Z,6.65
2024-02-17T18:23:43.599Z,6.63
2024-02-17T18:28:47.006Z,6.59
2024-02-17T18:33:50.999Z,6.49
2024-02-17T18:38:54.536Z,6.47
2024-02-17T18:43:58.367Z,6.35
2024-02-17T18:49:01.987Z,6.30
2024-02-17T18:54:07.201Z,6.24
2024-02-17T18:59:12.351Z,6.39
2024-02-17T19:04:16.163Z,6.66
2024-02-17T19:09:19.775Z,6.87
2024-02-17T19:14:24.203Z,6.98
2024-02-17T19:19:27.571Z,6.96
2024-02-17T19:24:31.529Z,7.07
2024-02-17T19:29:35.024Z,7.01
2024-02-17T19:34:38.863Z,6.91
2024-02-17T19:39:42.608Z,6.84
2024-02-17T19:44:46.140Z,6.78
2024-02-17T19:49:50.346Z,6.77
2024-02-17T19:54:53.961Z,6.80
2024-02-17T19:59:57.358Z,6.98
2024-02-17T20:05:01.651Z,7.17
2024-02-17T20:10:07.640Z,7.49
2024-02-17T20:15:14.100Z,7.65
2024-02-17T20:20:19.976Z,7.85
2024-02-17T20:25:24.790Z,7.86
2024-02-17T20:30:28.274Z,7.74
2024-02-17T20:35:31.704Z,7.63
2024-02-17T20:40:36.010Z,7.62
2024-02-17T20:45:39.286Z,7.60
2024-02-17T20:50:43.672Z,7.43
2024-02-17T20:55:47.469Z,7.28
2024-02-17T21:00:51.209Z,7.15
2024-02-17T21:05:56.951Z,6.91
2024-02-17T21:11:00.896Z,6.79
2024-02-17T21:16:04.889Z,6.56
2024-02-17T21:21:09.154Z,6.31
2024-02-17T21:26:12.616Z,6.21
2024-02-17T21:31:22.353Z,6.06
2024-02-17T21:36:27.469Z,5.94
2024-02-17T21:41:31.017Z,5.75
2024-02-17T21:46:35.965Z,5.62
2024-02-17T21:51:39.674Z,5.37
2024-02-17T21:56:43.073Z,5.22
2024-02-17T22:01:55.203Z,5.04
2024-02-17T22:07:05.565Z,4.86
2024-02-17T22:12:09.082Z,4.79
2024-02-17T22:17:12.459Z,4.88
2024-02-17T22:22:15.936Z,5.31
2024-02-17T22:27:19.780Z,5.71
2024-02-17T22:32:23.319Z,6.00
2024-02-17T22:37:26.689Z,6.33
2024-02-17T22:42:30.135Z,6.43
2024-02-17T22:47:33.659Z,6.51
2024-02-17T22:52:37.544Z,6.65
2024-02-17T22:57:41.512Z,6.76
2024-02-17T23:02:45.083Z,7.07
2024-02-17T23:07:49.290Z,7.13
2024-02-17T23:12:52.908Z,7.11
2024-02-17T23:17:56.697Z,7.10
2024-02-17T23:23:01.167Z,7.16
2024-02-17T23:28:05.311Z,7.19
2024-02-17T23:33:09.107Z,7.16
2024-02-17T23:38:12.815Z,7.12
2024-02-17T23:43:16.175Z,6.95
2024-02-17T23:48:19.705Z,6.96
2024-02-17T23:53:23.164Z,6.86
2024-02-17T23:58:27.189Z,6.79
